createdAt,value
2017-10-30T00:01:04.472Z,1.48
2017-10-30T00:03:32.035Z,1.65
2017-10-30T00:06:00.271Z,1.50
2017-10-30T00:08:27.749Z,1.10
2017-10-30T00:10:55.242Z,1.50
2017-10-30T00:13:23.474Z,1.50
2017-10-30T00:15:50.949Z,1.80
2017-10-30T00:18:18.414Z,1.83
2017-10-30T00:20:46.653Z,2.42
2017-10-30T00:23:14.117Z,1.50
2017-10-30T00:25:41.597Z,1.35
2017-10-30T00:28:09.154Z,1.98
2017-10-30T00:30:37.434Z,1.42
2017-10-30T00:33:05.670Z,1.52
2017-10-30T00:35:33.143Z,1.90
2017-10-30T00:38:00.597Z,1.85
2017-10-30T00:40:28.082Z,1.35
2017-10-30T00:42:56.354Z,1.70
2017-10-30T00:45:24.605Z,1.50
2017-10-30T00:47:52.062Z,1.60
2017-10-30T00:50:19.645Z,2.30
2017-10-30T00:52:47.190Z,1.83
2017-10-30T00:55:14.734Z,4.35
2017-10-30T00:57:42.220Z,1.80
2017-10-30T01:00:10.465Z,2.20
2017-10-30T01:02:37.954Z,1.65
2017-10-30T01:05:06.217Z,2.58
2017-10-30T01:07:33.687Z,1.75
2017-10-30T01:10:01.935Z,2.37
2017-10-30T01:12:29.401Z,1.30
2017-10-30T01:14:56.870Z,1.75
2017-10-30T01:17:24.416Z,1.98
2017-10-30T01:19:51.891Z,1.98
2017-10-30T01:22:20.133Z,2.15
2017-10-30T01:24:47.601Z,2.28
2017-10-30T01:27:15.065Z,3.60
2017-10-30T01:29:42.530Z,3.55
2017-10-30T01:32:09.985Z,2.35
2017-10-30T01:34:37.447Z,3.12
2017-10-30T01:37:05.006Z,1.42
2017-10-30T01:39:32.563Z,2.28
2017-10-30T01:42:00.110Z,1.77
2017-10-30T01:44:27.569Z,2.40
2017-10-30T01:46:55.033Z,1.40
2017-10-30T01:49:22.581Z,1.70
2017-10-30T01:51:50.158Z,2.12
2017-10-30T01:54:18.428Z,2.50
2017-10-30T01:56:46.731Z,1.85
2017-10-30T01:59:14.249Z,1.87
2017-10-30T02:01:41.719Z,2.30
2017-10-30T02:04:09.179Z,2.65
2017-10-30T02:06:37.436Z,2.15
2017-10-30T02:09:04.893Z,2.60
2017-10-30T02:11:32.363Z,1.83
2017-10-30T02:14:00.639Z,2.45
2017-10-30T02:16:28.097Z,2.78
2017-10-30T02:18:55.557Z,2.00
2017-10-30T02:21:23.830Z,1.98
2017-10-30T02:23:52.152Z,2.40
2017-10-30T02:26:19.615Z,2.30
2017-10-30T02:28:47.113Z,2.05
2017-10-30T02:31:14.679Z,3.05
2017-10-30T02:33:42.225Z,1.48
2017-10-30T02:36:09.695Z,1.85
2017-10-30T02:38:37.242Z,1.85
2017-10-30T02:41:04.697Z,2.20
2017-10-30T02:43:32.165Z,2.00
2017-10-30T02:45:59.613Z,2.03
2017-10-30T02:48:27.078Z,2.20
2017-10-30T02:50:55.367Z,2.92
2017-10-30T02:53:23.619Z,1.98
2017-10-30T02:55:51.073Z,2.50
2017-10-30T02:58:19.308Z,2.05
2017-10-30T03:00:46.779Z,1.80
2017-10-30T03:03:14.241Z,2.53
2017-10-30T03:05:41.737Z,2.37
2017-10-30T03:08:09.278Z,2.87
2017-10-30T03:10:36.736Z,2.40
2017-10-30T03:13:04.194Z,2.15
2017-10-30T03:15:31.670Z,3.00
2017-10-30T03:17:59.924Z,2.53
2017-10-30T03:20:27.380Z,2.08
2017-10-30T03:22:54.858Z,2.65
2017-10-30T03:25:23.115Z,2.67
2017-10-30T03:27:50.689Z,2.40
2017-10-30T03:30:18.964Z,1.92
2017-10-30T03:32:47.197Z,2.25
2017-10-30T03:35:14.702Z,1.42
2017-10-30T03:37:42.935Z,4.07
2017-10-30T03:40:10.401Z,2.17
2017-10-30T03:42:37.866Z,4.28
2017-10-30T03:45:05.387Z,3.33
2017-10-30T03:47:32.858Z,2.28
2017-10-30T03:50:00.354Z,3.35
2017-10-30T03:52:27.819Z,1.90
2017-10-30T03:54:56.092Z,2.05
2017-10-30T03:57:24.364Z,2.15
2017-10-30T03:59:51.923Z,2.35
2017-10-30T04:02:20.190Z,1.95
2017-10-30T04:04:47.653Z,2.97
2017-10-30T04:07:15.258Z,1.58
2017-10-30T04:09:42.717Z,1.08
2017-10-30T04:12:10.187Z,1.85
2017-10-30T04:14:37.640Z,1.30
2017-10-30T04:17:05.143Z,1.10
2017-10-30T04:19:33.481Z,1.25
2017-10-30T04:22:00.938Z,1.55
2017-10-30T04:24:28.401Z,1.10
2017-10-30T04:26:55.875Z,1.00
2017-10-30T04:29:24.109Z,1.10
2017-10-30T04:31:51.572Z,0.80
2017-10-30T04:34:19.034Z,0.80
2017-10-30T04:36:46.521Z,0.80
2017-10-30T04:39:14.094Z,1.90
2017-10-30T04:41:42.322Z,2.60
2017-10-30T04:44:09.829Z,1.70
2017-10-30T04:46:38.049Z,1.37
2017-10-30T04:49:05.517Z,1.45
2017-10-30T04:51:32.994Z,1.85
2017-10-30T04:54:00.577Z,1.48
2017-10-30T04:56:28.799Z,1.20
2017-10-30T04:58:56.258Z,1.90
2017-10-30T05:01:23.730Z,1.10
2017-10-30T05:03:51.199Z,1.62
2017-10-30T05:06:18.779Z,1.85
2017-10-30T05:08:47.007Z,1.85
2017-10-30T05:11:14.462Z,1.30
2017-10-30T05:13:42.012Z,1.92
2017-10-30T05:16:09.527Z,1.87
2017-10-30T05:18:37.809Z,1.65
2017-10-30T05:21:06.041Z,1.30
2017-10-30T05:23:33.506Z,1.40
2017-10-30T05:26:00.980Z,1.35
2017-10-30T05:28:28.436Z,1.10
2017-10-30T05:30:55.979Z,1.23
2017-10-30T05:33:23.443Z,1.02
2017-10-30T05:35:51.101Z,1.40
2017-10-30T05:38:18.548Z,1.00
2017-10-30T05:40:46.115Z,1.10
2017-10-30T05:43:13.572Z,1.45
2017-10-30T05:45:41.132Z,1.48
2017-10-30T05:48:08.585Z,2.25
2017-10-30T05:50:36.059Z,1.23
2017-10-30T05:53:03.515Z,1.80
2017-10-30T05:55:34.851Z,1.35
2017-10-30T05:58:02.414Z,1.00
2017-10-30T06:00:29.979Z,1.50
2017-10-30T06:02:57.432Z,1.02
2017-10-30T06:05:24.888Z,1.20
2017-10-30T06:07:52.359Z,4.57
2017-10-30T06:10:20.604Z,1.30
2017-10-30T06:12:48.078Z,1.95
2017-10-30T06:15:16.346Z,2.47
2017-10-30T06:17:43.825Z,1.80
2017-10-30T06:20:12.071Z,2.33
2017-10-30T06:22:39.529Z,1.40
2017-10-30T06:25:07.090Z,2.47
2017-10-30T06:27:34.558Z,1.75
2017-10-30T06:30:02.018Z,2.03
2017-10-30T06:32:30.247Z,1.60
2017-10-30T06:34:57.706Z,1.62
2017-10-30T06:37:25.218Z,1.55
2017-10-30T06:39:53.459Z,1.77
2017-10-30T06:42:21.093Z,1.80
2017-10-30T06:44:48.581Z,1.42
2017-10-30T06:47:16.069Z,2.10
2017-10-30T06:49:44.314Z,3.53
2017-10-30T06:52:11.773Z,1.70
2017-10-30T06:54:39.225Z,1.40
2017-10-30T06:57:06.685Z,1.87
2017-10-30T06:59:34.159Z,1.85
2017-10-30T07:02:01.624Z,1.20
2017-10-30T07:04:29.883Z,1.90
2017-10-30T07:06:57.438Z,1.17
2017-10-30T07:09:24.919Z,1.10
2017-10-30T07:11:53.159Z,1.15
2017-10-30T07:14:20.626Z,1.92
2017-10-30T07:16:48.177Z,1.35
2017-10-30T07:19:15.645Z,1.25
2017-10-30T07:21:43.095Z,1.58
2017-10-30T07:24:10.657Z,1.27
2017-10-30T07:26:38.215Z,1.10
2017-10-30T07:29:05.679Z,1.65
2017-10-30T07:31:33.157Z,2.35
2017-10-30T07:34:01.377Z,1.00
2017-10-30T07:36:28.917Z,1.70
2017-10-30T07:38:56.394Z,1.40
2017-10-30T07:41:23.858Z,1.50
2017-10-30T07:43:51.330Z,2.87
2017-10-30T07:46:18.900Z,1.42
2017-10-30T07:48:46.370Z,1.73
2017-10-30T07:51:14.617Z,1.37
2017-10-30T07:53:42.077Z,1.83
2017-10-30T07:56:09.537Z,0.80
2017-10-30T07:58:36.990Z,1.50
2017-10-30T08:01:04.460Z,1.52
2017-10-30T08:03:32.714Z,1.35
2017-10-30T08:06:01.529Z,1.27
2017-10-30T08:08:29.791Z,1.33
2017-10-30T08:10:57.341Z,1.45
2017-10-30T08:13:25.693Z,1.23
2017-10-30T08:15:53.177Z,1.08
2017-10-30T08:18:20.633Z,1.12
2017-10-30T08:20:48.096Z,1.50
2017-10-30T08:23:15.660Z,1.92
2017-10-30T08:25:43.126Z,1.35
2017-10-30T08:28:11.357Z,1.50
2017-10-30T08:30:38.941Z,1.45
2017-10-30T08:33:06.412Z,1.52
2017-10-30T08:35:33.910Z,1.80
2017-10-30T08:38:01.516Z,1.30
2017-10-30T08:40:29.788Z,1.10
2017-10-30T08:42:58.023Z,1.35
2017-10-30T08:45:25.504Z,1.23
2017-10-30T08:47:52.966Z,1.45
2017-10-30T08:50:20.453Z,1.80
2017-10-30T08:52:48.705Z,1.50
2017-10-30T08:55:16.161Z,1.62
2017-10-30T08:57:43.634Z,1.08
2017-10-30T09:00:11.097Z,1.67
2017-10-30T09:02:39.344Z,1.50
2017-10-30T09:05:06.819Z,1.35
2017-10-30T09:07:34.353Z,2.50
2017-10-30T09:10:04.372Z,1.50
2017-10-30T09:12:31.841Z,2.45
2017-10-30T09:14:59.417Z,2.25
2017-10-30T09:17:26.885Z,1.37
2017-10-30T09:19:59.926Z,1.20
2017-10-30T09:22:27.417Z,1.30
2017-10-30T09:24:54.966Z,0.95
2017-10-30T09:27:22.437Z,1.83
2017-10-30T09:29:50.679Z,1.23
2017-10-30T09:32:18.157Z,1.27
2017-10-30T09:34:45.640Z,1.20
2017-10-30T09:37:13.867Z,1.35
2017-10-30T09:39:41.345Z,1.52
2017-10-30T09:42:08.914Z,1.12
2017-10-30T09:44:36.404Z,1.23
2017-10-30T09:47:03.872Z,1.83
2017-10-30T09:49:31.382Z,1.30
2017-10-30T09:51:59.658Z,1.42
2017-10-30T09:54:27.909Z,1.30
2017-10-30T09:56:55.381Z,1.30
2017-10-30T09:59:22.940Z,1.10
2017-10-30T10:01:50.505Z,1.10
2017-10-30T10:04:18.077Z,1.60
2017-10-30T10:06:46.313Z,1.00
2017-10-30T10:09:13.799Z,1.23
2017-10-30T10:11:41.264Z,1.00
2017-10-30T10:14:09.534Z,0.80
2017-10-30T10:16:36.998Z,1.27
2017-10-30T10:19:05.308Z,0.93
2017-10-30T10:21:32.826Z,0.90
2017-10-30T10:24:00.385Z,0.83
2017-10-30T10:26:28.623Z,0.83
2017-10-30T10:28:56.108Z,1.00
2017-10-30T10:31:24.354Z,0.77
2017-10-30T10:33:51.817Z,1.10
2017-10-30T10:36:19.402Z,0.80
2017-10-30T10:38:46.860Z,0.87
2017-10-30T10:41:15.590Z,1.13
2017-10-30T10:43:43.041Z,1.00
2017-10-30T10:46:10.567Z,0.90
2017-10-30T10:48:38.790Z,0.70
2017-10-30T10:51:06.244Z,0.90
2017-10-30T10:53:33.752Z,0.60
2017-10-30T10:56:02.026Z,0.80
2017-10-30T10:58:30.256Z,0.87
2017-10-30T11:00:57.753Z,0.90
2017-10-30T11:03:25.314Z,0.77
2017-10-30T11:05:52.806Z,0.60
2017-10-30T11:08:20.286Z,0.70
2017-10-30T11:10:47.742Z,0.80
2017-10-30T11:13:15.624Z,0.67
2017-10-30T11:15:43.097Z,0.60
2017-10-30T11:18:10.571Z,0.80
2017-10-30T11:20:38.838Z,1.17
2017-10-30T11:23:07.068Z,0.73
2017-10-30T11:25:34.571Z,0.80
2017-10-30T11:28:02.129Z,0.63
2017-10-30T11:30:29.591Z,0.80
2017-10-30T11:32:57.063Z,1.10
2017-10-30T11:35:25.291Z,0.90
2017-10-30T11:37:52.767Z,0.60
2017-10-30T11:40:20.237Z,0.70
2017-10-30T11:42:48.488Z,0.70
2017-10-30T11:45:16.009Z,1.10
2017-10-30T11:47:43.476Z,0.60
2017-10-30T11:50:10.984Z,0.90
2017-10-30T11:52:39.215Z,1.07
2017-10-30T11:55:06.713Z,1.03
2017-10-30T11:57:34.172Z,0.77
2017-10-30T12:00:01.666Z,1.77
2017-10-30T12:02:29.184Z,0.70
2017-10-30T12:04:56.745Z,1.00
2017-10-30T12:07:24.991Z,0.90
2017-10-30T12:09:52.726Z,0.70
2017-10-30T12:12:20.698Z,1.10
2017-10-30T12:14:48.154Z,0.67
2017-10-30T12:17:15.725Z,0.80
2017-10-30T12:19:43.210Z,1.10
2017-10-30T12:22:10.783Z,0.90
2017-10-30T12:24:38.325Z,0.90
2017-10-30T12:27:05.877Z,0.97
2017-10-30T12:29:33.458Z,1.10
2017-10-30T12:32:00.987Z,0.90
2017-10-30T12:34:28.470Z,0.80
2017-10-30T12:36:55.956Z,0.80
2017-10-30T12:39:24.210Z,0.97
2017-10-30T12:41:52.604Z,0.90
2017-10-30T12:44:20.152Z,1.00
2017-10-30T12:46:48.401Z,0.95
2017-10-30T12:49:16.703Z,1.00
2017-10-30T12:51:44.971Z,0.90
2017-10-30T12:54:12.444Z,0.80
2017-10-30T12:56:40.685Z,0.73
2017-10-30T12:59:08.397Z,1.02
2017-10-30T13:04:10.822Z,0.80
2017-10-30T13:06:38.449Z,0.73
2017-10-30T13:09:06.006Z,0.80
2017-10-30T13:11:33.520Z,0.95
2017-10-30T13:14:01.005Z,1.10
2017-10-30T13:16:29.248Z,0.80
2017-10-30T13:18:56.735Z,1.05
2017-10-30T13:21:25.117Z,1.00
2017-10-30T13:23:53.463Z,0.90
2017-10-30T13:26:21.008Z,0.80
2017-10-30T13:28:48.499Z,0.70
2017-10-30T13:31:16.830Z,1.45
2017-10-30T13:33:44.309Z,1.10
2017-10-30T13:36:11.765Z,1.05
2017-10-30T13:38:39.246Z,1.00
2017-10-30T13:41:07.494Z,1.23
2017-10-30T13:43:34.959Z,1.02
2017-10-30T13:46:02.462Z,1.35
2017-10-30T13:48:29.965Z,0.80
2017-10-30T13:50:57.524Z,1.40
2017-10-30T13:53:25.023Z,0.90
2017-10-30T13:55:52.549Z,0.90
2017-10-30T13:58:20.018Z,0.85
2017-10-30T14:00:47.567Z,0.90
2017-10-30T14:03:15.134Z,1.12
2017-10-30T14:05:43.461Z,1.00
2017-10-30T14:08:10.917Z,1.00
2017-10-30T14:10:38.385Z,1.55
2017-10-30T14:13:05.876Z,1.92
2017-10-30T14:15:33.441Z,1.10
2017-10-30T14:18:01.865Z,0.77
2017-10-30T14:20:29.371Z,0.93
2017-10-30T14:22:56.819Z,0.95
2017-10-30T14:25:24.301Z,1.12
2017-10-30T14:27:52.527Z,0.98
2017-10-30T14:30:20.002Z,2.50
2017-10-30T14:32:47.469Z,1.10
2017-10-30T14:35:15.017Z,0.90
2017-10-30T14:37:42.476Z,1.30
2017-10-30T14:40:10.040Z,1.05
2017-10-30T14:42:37.566Z,1.33
2017-10-30T14:45:05.050Z,1.48
2017-10-30T14:47:32.545Z,1.55
2017-10-30T14:50:00.069Z,1.75
2017-10-30T14:52:27.530Z,1.42
2017-10-30T14:54:55.085Z,1.25
2017-10-30T14:57:22.542Z,0.95
2017-10-30T14:59:49.998Z,1.83
2017-10-30T15:02:17.470Z,1.30
2017-10-30T15:04:45.736Z,1.23
2017-10-30T15:07:13.284Z,1.17
2017-10-30T15:09:40.754Z,2.05
2017-10-30T15:12:08.228Z,1.10
2017-10-30T15:14:36.456Z,1.20
2017-10-30T15:17:03.909Z,0.90
2017-10-30T15:19:31.387Z,1.30
2017-10-30T15:21:58.961Z,2.17
2017-10-30T15:24:26.558Z,1.50
2017-10-30T15:26:54.019Z,1.35
2017-10-30T15:29:21.495Z,2.40
2017-10-30T15:31:49.036Z,2.47
2017-10-30T15:34:16.540Z,1.90
2017-10-30T15:36:44.777Z,1.48
2017-10-30T15:39:12.265Z,1.08
2017-10-30T15:41:39.844Z,1.30
2017-10-30T15:44:07.389Z,1.77
2017-10-30T15:46:34.845Z,1.30
2017-10-30T15:49:02.401Z,1.12
2017-10-30T15:51:29.867Z,0.82
2017-10-30T15:53:57.319Z,1.52
2017-10-30T15:56:24.932Z,1.20
2017-10-30T15:58:52.438Z,1.00
2017-10-30T16:01:19.892Z,1.30
2017-10-30T16:03:48.149Z,1.10
2017-10-30T16:06:15.697Z,1.30
2017-10-30T16:08:43.187Z,1.70
2017-10-30T16:11:10.656Z,1.70
2017-10-30T16:13:38.921Z,1.15
2017-10-30T16:16:06.400Z,0.98
2017-10-30T16:18:34.640Z,1.77
2017-10-30T16:21:02.160Z,1.48
2017-10-30T16:23:29.663Z,1.33
2017-10-30T16:25:57.230Z,1.35
2017-10-30T16:28:24.819Z,1.83
2017-10-30T16:30:52.302Z,1.73
2017-10-30T16:33:19.773Z,1.70
2017-10-30T16:35:47.246Z,1.52
2017-10-30T16:38:14.707Z,2.00
2017-10-30T16:40:42.276Z,1.45
2017-10-30T16:43:09.781Z,1.20
2017-10-30T16:45:37.233Z,1.50
2017-10-30T16:48:04.697Z,1.58
2017-10-30T16:50:32.194Z,1.20
2017-10-30T16:52:59.750Z,1.00
2017-10-30T16:55:27.318Z,1.35
2017-10-30T16:57:54.791Z,1.20
2017-10-30T17:00:23.014Z,1.00
2017-10-30T17:02:50.482Z,1.65
2017-10-30T17:05:17.928Z,1.20
2017-10-30T17:07:45.388Z,1.75
2017-10-30T17:10:12.926Z,1.60
2017-10-30T17:12:40.414Z,1.62
2017-10-30T17:15:07.862Z,1.40
2017-10-30T17:17:35.322Z,1.95
2017-10-30T17:20:02.777Z,1.50
2017-10-30T17:22:30.287Z,1.95
2017-10-30T17:24:58.535Z,1.67
2017-10-30T17:27:25.991Z,1.67
2017-10-30T17:29:53.553Z,1.48
2017-10-30T17:32:21.060Z,1.92
2017-10-30T17:34:48.617Z,1.80
2017-10-30T17:37:16.070Z,1.45
2017-10-30T17:39:43.532Z,1.30
2017-10-30T17:42:10.998Z,2.00
2017-10-30T17:44:38.514Z,2.20
2017-10-30T17:47:06.749Z,1.40
2017-10-30T17:49:34.251Z,1.87
2017-10-30T17:52:02.470Z,1.23
2017-10-30T17:54:29.960Z,1.45
2017-10-30T17:56:57.418Z,1.45
2017-10-30T17:59:24.894Z,1.83
2017-10-30T18:01:53.150Z,1.50
2017-10-30T18:04:20.636Z,1.20
2017-10-30T18:06:48.125Z,2.10
2017-10-30T18:09:15.634Z,1.80
2017-10-30T18:11:43.856Z,2.17
2017-10-30T18:14:11.313Z,2.55
2017-10-30T18:16:38.805Z,2.40
2017-10-30T18:19:06.385Z,2.42
2017-10-30T18:21:34.605Z,1.65
2017-10-30T18:24:02.074Z,1.87
2017-10-30T18:26:29.562Z,1.35
2017-10-30T18:28:57.120Z,1.70
2017-10-30T18:31:24.672Z,2.10
2017-10-30T18:33:52.284Z,2.55
2017-10-30T18:36:19.807Z,2.30
2017-10-30T18:38:48.086Z,1.58
2017-10-30T18:41:16.367Z,1.58
2017-10-30T18:43:44.637Z,1.55
2017-10-30T18:46:12.848Z,1.33
2017-10-30T18:48:40.351Z,1.95
2017-10-30T18:51:07.821Z,1.45
2017-10-30T18:53:36.132Z,1.20
2017-10-30T18:56:03.580Z,1.50
2017-10-30T18:58:31.062Z,1.70
2017-10-30T19:00:58.514Z,1.50
2017-10-30T19:03:25.970Z,1.15
2017-10-30T19:05:53.438Z,1.67
2017-10-30T19:08:20.927Z,1.67
2017-10-30T19:10:48.387Z,1.55
2017-10-30T19:13:16.962Z,1.45
2017-10-30T19:15:44.427Z,1.40
2017-10-30T19:18:11.987Z,2.10
2017-10-30T19:20:39.537Z,1.50
2017-10-30T19:23:07.087Z,1.45
2017-10-30T19:25:34.754Z,1.92
2017-10-30T19:28:02.400Z,2.50
2017-10-30T19:30:29.873Z,1.85
2017-10-30T19:32:57.445Z,1.75
2017-10-30T19:35:25.740Z,2.78
2017-10-30T19:37:53.210Z,2.55
2017-10-30T19:40:20.665Z,1.50
2017-10-30T19:42:48.135Z,2.20
2017-10-30T19:45:15.608Z,1.83
2017-10-30T19:47:43.070Z,1.75
2017-10-30T19:50:10.798Z,2.22
2017-10-30T19:52:38.274Z,2.80
2017-10-30T19:55:05.745Z,1.95
2017-10-30T19:57:33.232Z,1.90
2017-10-30T20:00:00.690Z,2.08
2017-10-30T20:02:28.223Z,1.45
2017-10-30T20:04:55.701Z,2.12
2017-10-30T20:07:28.951Z,2.35
2017-10-30T20:10:02.194Z,2.53
2017-10-30T20:12:30.417Z,2.83
2017-10-30T20:14:57.874Z,2.15
2017-10-30T20:17:25.358Z,2.22
2017-10-30T20:19:52.813Z,2.37
2017-10-30T20:22:20.270Z,2.65
2017-10-30T20:24:50.220Z,2.10
2017-10-30T20:27:18.483Z,2.60
2017-10-30T20:29:46.739Z,1.70
2017-10-30T20:32:14.193Z,2.03
2017-10-30T20:34:43.153Z,2.50
2017-10-30T20:37:10.612Z,2.30
2017-10-30T20:39:38.074Z,1.70
2017-10-30T20:42:05.536Z,2.15
2017-10-30T20:44:33.005Z,1.90
2017-10-30T20:47:00.454Z,2.40
2017-10-30T20:49:27.931Z,2.40
2017-10-30T20:51:55.397Z,2.55
2017-10-30T20:54:22.859Z,3.03
2017-10-30T20:56:50.462Z,2.42
2017-10-30T20:59:17.970Z,2.78
2017-10-30T21:01:45.574Z,2.37
2017-10-30T21:04:13.129Z,2.30
2017-10-30T21:06:42.490Z,2.47
2017-10-30T21:09:09.955Z,2.05
2017-10-30T21:11:38.337Z,2.25
2017-10-30T21:14:06.599Z,1.95
2017-10-30T21:16:34.104Z,4.25
2017-10-30T21:19:01.569Z,2.20
2017-10-30T21:21:29.052Z,2.40
2017-10-30T21:23:56.514Z,2.30
2017-10-30T21:26:23.970Z,2.70
2017-10-30T21:28:51.421Z,2.83
2017-10-30T21:31:18.886Z,2.20
2017-10-30T21:33:46.447Z,2.83
2017-10-30T21:36:14.024Z,2.10
2017-10-30T21:38:42.250Z,1.90
2017-10-30T21:41:09.755Z,2.28
2017-10-30T21:43:37.969Z,2.35
2017-10-30T21:46:05.446Z,1.83
2017-10-30T21:48:33.084Z,2.60
2017-10-30T21:51:00.585Z,2.40
2017-10-30T21:53:28.202Z,2.10
2017-10-30T21:55:55.662Z,1.92
2017-10-30T21:58:23.131Z,2.78
2017-10-30T22:00:50.592Z,2.90
2017-10-30T22:03:18.058Z,2.25
2017-10-30T22:05:45.518Z,2.72
2017-10-30T22:08:13.077Z,2.55
2017-10-30T22:10:40.531Z,2.42
2017-10-30T22:13:09.001Z,2.78
2017-10-30T22:15:36.465Z,3.08
2017-10-30T22:18:09.769Z,3.40
2017-10-30T22:20:37.326Z,3.08
2017-10-30T22:23:04.785Z,2.78
2017-10-30T22:25:32.858Z,3.58
2017-10-30T22:28:01.608Z,3.00
2017-10-30T22:30:29.065Z,3.22
2017-10-30T22:32:56.529Z,3.58
2017-10-30T22:35:24.016Z,3.12
2017-10-30T22:37:51.834Z,3.30
2017-10-30T22:40:19.445Z,3.05
2017-10-30T22:42:46.995Z,3.12
2017-10-30T22:45:14.458Z,3.65
2017-10-30T22:47:42.098Z,2.65
2017-10-30T22:50:10.165Z,3.53
2017-10-30T22:52:37.640Z,3.62
2017-10-30T22:55:05.221Z,3.85
2017-10-30T22:57:32.687Z,3.20
2017-10-30T23:00:00.933Z,4.00
2017-10-30T23:02:28.396Z,3.42
2017-10-30T23:04:55.946Z,2.95
2017-10-30T23:07:23.412Z,2.90
2017-10-30T23:09:50.967Z,4.05
2017-10-30T23:12:18.416Z,3.00
2017-10-30T23:14:45.985Z,2.72
2017-10-30T23:17:13.538Z,3.30
2017-10-30T23:19:41.002Z,3.15
2017-10-30T23:22:08.549Z,3.05
2017-10-30T23:24:35.996Z,2.78
2017-10-30T23:27:03.459Z,2.50
2017-10-30T23:29:30.912Z,2.70
2017-10-30T23:31:58.384Z,2.60
2017-10-30T23:34:25.837Z,2.60
2017-10-30T23:36:53.285Z,2.53
2017-10-30T23:39:20.747Z,2.42
2017-10-30T23:41:48.206Z,2.40
2017-10-30T23:44:15.756Z,3.47
2017-10-30T23:46:43.280Z,2.95
2017-10-30T23:49:10.739Z,2.83
2017-10-30T23:51:38.203Z,3.60
2017-10-30T23:54:05.680Z,3.28
2017-10-30T23:56:33.128Z,2.72
2017-10-30T23:59:00.584Z,2.80
